Time;durP1;ratioP1;P1;durP2;ratioP2;P2;SDS_P1;SDS_P2;PMS_P1;PMS_P2;Temp;Humidity;BMP_temperature;BMP_pressure;BME280_temperature;BME280_humidity;BME280_pressure;Samples;Min_cycle;Max_cycle;Signal;HPM_P1;HPM_P2
2024/02/05 00:01:17;;;;;;;5.13;1.67;;;;;;;-0.04;67.72;96786.22;5137225;27;20420;-63
2024/02/05 00:03:45;;;;;;;3.70;1.60;;;;;;;-0.08;67.86;96784.81;5130256;27;20023;-65
2024/02/05 00:06:13;;;;;;;4.00;1.50;;;;;;;-0.17;67.85;96789.06;5136562;27;20113;-63
2024/02/05 00:08:39;;;;;;;4.18;1.52;;;;;;;-0.51;68.08;96752.53;5137135;27;20084;-64
2024/02/05 00:11:05;;;;;;;6.28;1.70;;;;;;;-0.33;67.96;96784.28;5137410;27;20122;-64
2024/02/05 00:13:32;;;;;;;4.07;1.23;;;;;;;-0.53;68.78;96770.22;5055267;27;20144;-63
2024/02/05 00:15:57;;;;;;;4.70;1.48;;;;;;;-0.51;68.73;96787.50;5051558;28;20033;-64
2024/02/05 00:18:26;;;;;;;8.10;1.77;;;;;;;-0.55;68.89;96787.91;5051896;28;20031;-64
2024/02/05 00:20:54;;;;;;;4.45;1.67;;;;;;;-0.56;69.24;96786.25;5106334;27;20035;-64
2024/02/05 00:23:20;;;;;;;4.53;1.20;;;;;;;-0.79;69.02;96762.72;5136382;27;20102;-64
2024/02/05 00:25:46;;;;;;;4.32;1.45;;;;;;;-0.74;69.48;96769.25;5136130;27;20087;-65
2024/02/05 00:28:12;;;;;;;4.80;1.20;;;;;;;-0.66;69.73;96773.88;5135655;27;20088;-63
2024/02/05 00:30:38;;;;;;;4.45;1.23;;;;;;;-0.62;69.70;96764.75;5118406;27;20036;-63
2024/02/05 00:33:05;;;;;;;4.30;1.00;;;;;;;-0.51;69.47;96771.72;5050858;28;20025;-64
2024/02/05 00:35:31;;;;;;;4.22;1.27;;;;;;;-0.45;69.71;96762.50;5051251;28;20028;-65
2024/02/05 00:37:57;;;;;;;5.75;1.02;;;;;;;-0.40;69.13;96759.50;5051630;28;20025;-64
2024/02/05 00:40:22;;;;;;;6.10;1.38;;;;;;;-0.36;69.32;96767.00;5052239;28;20029;-64
2024/02/05 00:42:48;;;;;;;5.20;1.00;;;;;;;-0.27;68.70;96769.78;5051495;28;20063;-63
2024/02/05 00:45:15;;;;;;;5.10;1.25;;;;;;;-0.22;69.14;96760.56;5086653;27;20139;-63
2024/02/05 00:47:40;;;;;;;3.15;1.08;;;;;;;-0.22;68.98;96763.19;5135576;27;20034;-64
2024/02/05 00:50:06;;;;;;;5.18;1.25;;;;;;;-0.18;68.62;96748.81;5097526;27;20044;-64
2024/02/05 00:52:32;;;;;;;2.88;1.63;;;;;;;-0.07;68.65;96763.66;5051152;28;20055;-63
2024/02/05 00:54:58;;;;;;;6.93;2.40;;;;;;;-0.01;68.48;96768.38;5050878;28;20026;-63
2024/02/05 00:57:26;;;;;;;7.40;2.80;;;;;;;0.05;68.52;96761.75;5051029;28;20056;-62
2024/02/05 00:59:53;;;;;;;4.35;2.72;;;;;;;0.09;68.02;96759.66;5051034;28;20061;-63
2024/02/05 01:02:18;;;;;;;4.70;2.55;;;;;;;-0.14;68.30;96717.78;5050097;28;20360;-65
2024/02/05 01:04:44;;;;;;;7.63;2.63;;;;;;;0.16;68.51;96762.59;5056367;27;20036;-61
2024/02/05 01:07:10;;;;;;;3.50;1.83;;;;;;;0.23;67.93;96763.72;5051245;28;20033;-62
2024/02/05 01:09:35;;;;;;;3.80;1.88;;;;;;;0.22;68.02;96764.69;5110696;27;20039;-62
2024/02/05 01:12:03;;;;;;;4.70;2.13;;;;;;;0.26;68.22;96760.84;5135133;27;20027;-63
2024/02/05 01:14:28;;;;;;;6.25;1.98;;;;;;;0.26;68.17;96760.84;5135635;27;20066;-61
2024/02/05 01:16:54;;;;;;;4.25;1.90;;;;;;;0.36;67.92;96761.69;5135138;27;20023;-63
2024/02/05 01:19:19;;;;;;;5.63;1.75;;;;;;;0.32;68.24;96752.41;5135105;27;20030;-63
2024/02/05 01:21:45;;;;;;;5.20;1.75;;;;;;;0.37;67.95;96763.34;5135404;27;20080;-63
2024/02/05 01:24:11;;;;;;;4.93;1.80;;;;;;;0.36;67.71;96750.31;5129315;27;20339;-62
2024/02/05 01:26:36;;;;;;;3.90;1.50;;;;;;;0.36;67.74;96747.69;5134186;27;20031;-64
2024/02/05 01:29:02;;;;;;;4.47;1.30;;;;;;;0.42;67.78;96752.44;5056294;27;20379;-65
2024/02/05 01:31:28;;;;;;;6.80;1.88;;;;;;;0.35;67.92;96752.13;5050880;28;20036;-63
2024/02/05 01:33:53;;;;;;;5.15;1.50;;;;;;;0.32;67.96;96744.50;5088919;27;20049;-63
2024/02/05 01:36:19;;;;;;;6.82;1.42;;;;;;;0.29;67.75;96755.31;5134851;27;20125;-62
2024/02/05 01:38:44;;;;;;;2.67;1.15;;;;;;;0.26;67.83;96755.59;5135483;27;20098;-63
2024/02/05 01:41:10;;;;;;;5.18;1.77;;;;;;;0.18;68.28;96743.09;5133950;27;20038;-63
2024/02/05 01:43:36;;;;;;;2.28;1.20;;;;;;;0.24;68.39;96752.22;5128417;27;20045;-61
2024/02/05 01:46:02;;;;;;;3.70;1.27;;;;;;;-0.01;68.19;96720.19;5120817;27;20029;-61
2024/02/05 01:48:32;;;;;;;3.80;1.58;;;;;;;0.31;67.92;96763.91;5050592;28;20033;-62
2024/02/05 01:50:58;;;;;;;3.95;1.40;;;;;;;0.06;67.72;96713.44;5049339;28;20049;-62
2024/02/05 01:53:25;;;;;;;3.10;1.20;;;;;;;0.28;67.78;96743.94;5050146;28;20033;-62
2024/02/05 01:55:51;;;;;;;6.95;1.30;;;;;;;0.41;68.01;96759.47;5050805;28;20029;-62
2024/02/05 01:58:19;;;;;;;3.55;1.70;;;;;;;0.46;67.82;96760.88;5075997;27;20115;-62
2024/02/05 02:00:45;;;;;;;4.25;1.40;;;;;;;0.49;67.80;96752.72;5134574;27;20157;-63
2024/02/05 02:03:12;;;;;;;5.28;1.33;;;;;;;0.43;67.87;96733.84;5134610;27;20059;-64
2024/02/05 02:05:38;;;;;;;4.22;1.40;;;;;;;0.53;67.89;96751.47;5134834;27;20023;-64
2024/02/05 02:08:09;;;;;;;4.38;1.42;;;;;;;0.59;67.83;96750.91;5134438;27;20194;-61
2024/02/05 02:10:36;;;;;;;4.43;1.27;;;;;;;0.61;67.49;96742.91;5134019;27;20035;-63
2024/02/05 02:13:02;;;;;;;4.95;1.30;;;;;;;0.64;67.56;96748.69;5128205;27;20031;-62
2024/02/05 02:15:29;;;;;;;5.05;1.25;;;;;;;0.66;67.50;96752.03;5134801;27;20023;-63
2024/02/05 02:18:00;;;;;;;3.28;1.30;;;;;;;0.62;67.77;96729.59;5085072;27;20067;-63
2024/02/05 02:20:29;;;;;;;2.67;1.20;;;;;;;0.70;67.63;96736.78;5032923;28;20445;-62
2024/02/05 02:23:05;;;;;;;5.85;1.15;;;;;;;0.73;67.57;96733.88;5065712;27;20350;-63
2024/02/05 02:25:31;;;;;;;3.67;1.23;;;;;;;0.75;67.59;96733.75;5134531;27;20027;-63
2024/02/05 02:27:56;;;;;;;3.72;1.25;;;;;;;0.74;67.49;96738.19;5134451;27;20058;-67
2024/02/05 02:30:23;;;;;;;5.53;1.50;;;;;;;0.70;67.02;96732.34;5128644;27;20362;-63
2024/02/05 02:33:15;;;;;;;6.78;1.50;;;;;;;0.82;67.41;96742.75;5133923;27;20331;-63
2024/02/05 02:35:46;;;;;;;4.97;1.50;;;;;;;0.81;67.64;96743.72;5124114;27;20073;-61
2024/02/05 02:38:20;;;;;;;5.85;1.50;;;;;;;0.81;67.59;96738.47;5049958;28;20143;-63
2024/02/05 02:40:53;;;;;;;4.65;1.55;;;;;;;0.79;67.64;96743.84;5048708;28;20084;-63
2024/02/05 02:43:21;;;;;;;6.35;1.73;;;;;;;0.79;67.45;96740.41;5055272;27;20048;-62
2024/02/05 02:45:49;;;;;;;4.00;1.50;;;;;;;0.79;67.23;96740.41;5050059;28;20109;-64
2024/02/05 02:48:15;;;;;;;5.88;1.90;;;;;;;0.66;67.28;96725.69;5081469;27;20031;-63
2024/02/05 02:50:42;;;;;;;7.82;2.17;;;;;;;0.40;66.99;96686.75;5133209;27;20054;-63
2024/02/05 02:53:08;;;;;;;7.43;1.70;;;;;;;0.40;67.26;96688.56;5133418;27;20416;-63
2024/02/05 02:55:33;;;;;;;5.20;1.90;;;;;;;0.57;67.72;96721.28;5088725;27;20459;-63
2024/02/05 02:57:59;;;;;;;10.43;1.98;;;;;;;0.63;67.81;96720.72;5048422;28;20041;-62
2024/02/05 03:00:25;;;;;;;5.57;2.15;;;;;;;0.62;67.82;96724.31;5049032;28;20372;-62
2024/02/05 03:02:50;;;;;;;4.78;2.15;;;;;;;0.64;67.78;96725.00;5049220;28;20030;-63
2024/02/05 03:05:16;;;;;;;5.55;2.33;;;;;;;0.60;67.77;96715.72;5049382;28;20032;-63
2024/02/05 03:07:41;;;;;;;7.30;2.40;;;;;;;0.62;68.04;96715.59;5048866;28;20440;-63
2024/02/05 03:10:07;;;;;;;6.90;2.10;;;;;;;0.56;67.68;96711.72;5085888;27;20031;-62
2024/02/05 03:12:34;;;;;;;6.97;2.30;;;;;;;0.57;67.83;96716.00;5089774;27;20025;-63
2024/02/05 03:15:00;;;;;;;5.80;2.50;;;;;;;0.57;68.03;96713.38;5049249;28;20360;-63
2024/02/05 03:17:26;;;;;;;6.85;1.90;;;;;;;0.56;67.59;96709.91;5049374;28;20029;-63
2024/02/05 03:19:51;;;;;;;6.43;2.15;;;;;;;0.59;67.89;96713.22;5048898;28;20076;-62
2024/02/05 03:22:17;;;;;;;4.93;1.70;;;;;;;0.63;67.63;96704.09;5049179;28;20112;-64
2024/02/05 03:24:42;;;;;;;9.35;2.10;;;;;;;0.56;67.44;96695.91;5049083;28;20090;-62
2024/02/05 03:27:09;;;;;;;9.63;2.50;;;;;;;0.59;67.61;96703.53;5091272;28;20054;-62
2024/02/05 03:29:34;;;;;;;6.93;2.22;;;;;;;0.54;67.46;96697.84;5078947;27;20029;-62
2024/02/05 03:32:01;;;;;;;5.00;1.88;;;;;;;0.62;66.92;96711.16;5048325;28;20040;-61
2024/02/05 03:34:26;;;;;;;4.78;2.25;;;;;;;0.30;67.27;96656.97;5066946;27;20035;-63
2024/02/05 03:36:52;;;;;;;7.47;2.00;;;;;;;0.64;67.01;96705.75;5136702;27;20111;-62
2024/02/05 03:39:17;;;;;;;8.77;2.42;;;;;;;0.62;66.85;96705.88;5137316;27;20361;-61
2024/02/05 03:41:43;;;;;;;5.38;2.17;;;;;;;0.60;67.23;96707.81;5107592;27;20040;-61
2024/02/05 03:44:08;;;;;;;6.90;2.20;;;;;;;0.63;67.16;96704.91;5052144;28;20437;-62
2024/02/05 03:46:34;;;;;;;6.80;2.25;;;;;;;0.63;66.78;96704.91;5051184;28;20476;-63
2024/02/05 03:48:59;;;;;;;7.07;2.05;;;;;;;0.64;67.56;96711.03;5052066;28;20345;-63
2024/02/05 03:51:25;;;;;;;9.15;2.60;;;;;;;0.60;66.72;96702.56;5052670;28;20053;-62
2024/02/05 03:53:51;;;;;;;5.03;2.05;;;;;;;0.56;66.88;96696.72;5051578;28;20040;-63
2024/02/05 03:56:20;;;;;;;5.47;1.90;;;;;;;0.38;66.68;96666.81;5052186;28;20025;-63
2024/02/05 03:58:48;;;;;;;6.75;1.60;;;;;;;0.63;66.82;96694.38;5051267;28;20040;-62
2024/02/05 04:01:13;;;;;;;4.97;1.80;;;;;;;0.61;66.57;96691.06;5051285;28;20085;-61
2024/02/05 04:03:39;;;;;;;6.70;1.95;;;;;;;0.59;66.47;96692.16;5052120;28;20116;-63
2024/02/05 04:06:05;;;;;;;7.22;2.08;;;;;;;0.55;66.73;96687.16;5057244;27;20044;-63
2024/02/05 04:08:30;;;;;;;7.28;2.13;;;;;;;0.60;66.63;96691.19;5052064;28;20402;-63
2024/02/05 04:10:59;;;;;;;6.05;1.98;;;;;;;0.60;66.47;96694.66;5052375;28;20412;-62
2024/02/05 04:13:25;;;;;;;5.95;1.90;;;;;;;0.57;66.69;96689.69;5052027;28;20033;-63
2024/02/05 04:15:51;;;;;;;7.70;1.90;;;;;;;0.56;66.30;96690.66;5052184;28;20029;-63
2024/02/05 04:18:18;;;;;;;7.82;2.00;;;;;;;0.62;66.53;96694.53;5050851;28;20064;-61
2024/02/05 04:20:44;;;;;;;5.50;2.00;;;;;;;0.58;66.51;96696.59;5052285;28;20180;-64
2024/02/05 04:23:09;;;;;;;5.60;1.98;;;;;;;0.56;66.18;96696.72;5124505;27;20425;-64
2024/02/05 04:25:35;;;;;;;9.88;2.00;;;;;;;0.57;66.28;96684.41;5067241;27;20440;-64
2024/02/05 04:28:02;;;;;;;6.80;2.25;;;;;;;0.60;65.96;96685.91;5051595;28;20029;-62
2024/02/05 04:30:36;;;;;;;3.65;1.70;;;;;;;0.59;66.04;96687.75;5052077;28;20345;-62
2024/02/05 04:33:02;;;;;;;8.70;2.28;;;;;;;0.34;66.27;96649.63;5052028;28;20053;-64
2024/02/05 04:35:27;;;;;;;4.65;1.92;;;;;;;0.30;66.14;96640.34;5051323;28;20124;-63
2024/02/05 04:37:53;;;;;;;5.70;1.85;;;;;;;0.53;66.05;96677.75;5051817;28;20466;-62
2024/02/05 04:40:19;;;;;;;6.97;2.15;;;;;;;0.31;66.05;96632.31;5061878;27;20028;-62
2024/02/05 04:42:44;;;;;;;4.85;2.13;;;;;;;0.29;66.29;96634.28;5096543;27;20035;-62
2024/02/05 04:45:10;;;;;;;7.72;2.35;;;;;;;0.52;66.27;96682.19;5135049;27;20023;-63
2024/02/05 04:47:36;;;;;;;8.27;2.40;;;;;;;0.54;66.29;96680.25;5116394;27;20043;-63
2024/02/05 04:50:02;;;;;;;6.75;1.90;;;;;;;0.51;66.10;96696.31;5050140;28;20053;-63
2024/02/05 04:52:29;;;;;;;8.93;2.17;;;;;;;0.40;66.51;96673.59;5051438;28;20033;-63
2024/02/05 04:54:55;;;;;;;9.65;2.42;;;;;;;0.36;66.24;96679.25;5050992;28;20363;-63
2024/02/05 04:57:20;;;;;;;7.78;2.28;;;;;;;0.28;66.42;96674.72;5050571;28;20040;-62
2024/02/05 04:59:48;;;;;;;8.07;2.40;;;;;;;0.30;66.67;96677.19;5051236;28;20036;-62
2024/02/05 05:02:13;;;;;;;7.57;2.38;;;;;;;0.31;66.50;96677.06;5056107;27;20100;-62
2024/02/05 05:04:42;;;;;;;8.73;2.30;;;;;;;0.29;66.55;96671.09;5050981;28;20369;-62
2024/02/05 05:07:07;;;;;;;6.65;2.20;;;;;;;0.25;66.25;96667.09;5051048;28;20025;-64
2024/02/05 05:09:33;;;;;;;5.53;2.13;;;;;;;0.19;66.74;96665.84;5050550;28;20072;-64
2024/02/05 05:11:58;;;;;;;7.45;2.45;;;;;;;0.17;66.82;96666.94;5106706;27;20023;-64
2024/02/05 05:14:24;;;;;;;12.13;5.78;;;;;;;0.12;67.00;96662.06;5135466;27;20399;-63
2024/02/05 05:16:50;;;;;;;8.32;2.60;;;;;;;0.10;66.87;96664.00;5134003;27;20030;-63
2024/02/05 05:19:15;;;;;;;5.85;2.30;;;;;;;0.08;66.79;96663.31;5134369;27;20142;-63
2024/02/05 05:21:41;;;;;;;5.65;2.28;;;;;;;0.10;66.76;96656.97;5088968;27;20033;-61
2024/02/05 05:24:07;;;;;;;7.43;2.47;;;;;;;0.10;67.05;96659.59;5050305;28;20040;-62
2024/02/05 05:26:32;;;;;;;10.20;2.47;;;;;;;0.05;66.41;96642.53;5094974;27;20484;-62
2024/02/05 05:28:58;;;;;;;8.90;2.60;;;;;;;0.13;66.48;96667.19;5135571;27;20066;-63
2024/02/05 05:31:23;;;;;;;9.25;2.63;;;;;;;0.13;66.57;96659.31;5100737;27;20449;-63
2024/02/05 05:33:49;;;;;;;6.65;2.95;;;;;;;0.13;66.51;96654.03;5050653;28;20151;-63
2024/02/05 05:36:14;;;;;;;6.25;2.47;;;;;;;0.11;66.62;96653.34;5050993;28;20345;-61
2024/02/05 05:38:40;;;;;;;8.30;2.50;;;;;;;0.10;66.41;96643.81;5050829;28;20380;-63
2024/02/05 05:41:06;;;;;;;6.63;2.30;;;;;;;0.14;66.38;96647.81;5055089;27;20452;-69
2024/02/05 05:43:31;;;;;;;7.15;2.85;;;;;;;0.23;66.13;96666.38;5055096;27;20025;-64
2024/02/05 05:45:57;;;;;;;9.65;2.70;;;;;;;0.24;65.95;96652.25;5050239;28;20032;-56
2024/02/05 05:48:23;;;;;;;8.25;2.75;;;;;;;0.18;65.82;96631.75;5040871;28;20029;-63
2024/02/05 05:50:49;;;;;;;8.60;2.50;;;;;;;0.23;65.67;96635.66;5035729;28;20109;-64
2024/02/05 05:53:15;;;;;;;7.90;3.03;;;;;;;0.35;65.61;96646.88;5050321;28;20089;-65
2024/02/05 05:55:47;;;;;;;8.90;2.90;;;;;;;0.43;65.30;96643.53;5050970;28;20057;-66
2024/02/05 05:58:13;;;;;;;12.23;3.05;;;;;;;0.39;65.30;96655.31;5049072;28;20029;-66
2024/02/05 06:00:38;;;;;;;7.40;3.00;;;;;;;0.47;65.15;96657.25;5049272;28;20469;-65
2024/02/05 06:03:06;;;;;;;7.95;2.60;;;;;;;0.49;64.83;96660.59;5050116;28;20044;-65
2024/02/05 06:05:31;;;;;;;9.70;2.80;;;;;;;0.47;64.93;96650.19;5050649;28;20111;-63
2024/02/05 06:07:57;;;;;;;8.70;2.70;;;;;;;0.48;64.90;96654.47;5047986;28;20017;-64
2024/02/05 06:10:23;;;;;;;7.72;2.88;;;;;;;0.46;65.32;96647.69;5054376;27;20029;-64
2024/02/05 06:12:48;;;;;;;8.70;3.00;;;;;;;0.54;65.10;96653.09;5105945;27;20029;-65
2024/02/05 06:15:14;;;;;;;8.32;3.05;;;;;;;0.57;64.98;96663.34;5050389;28;20152;-64
2024/02/05 06:17:40;;;;;;;7.18;2.88;;;;;;;0.61;64.76;96658.66;5050493;28;20036;-64
2024/02/05 06:20:06;;;;;;;8.15;3.05;;;;;;;0.63;64.78;96662.78;5049457;28;20029;-63
2024/02/05 06:22:34;;;;;;;8.57;2.90;;;;;;;0.66;64.86;96657.25;5049508;28;20067;-65
2024/02/05 06:25:00;;;;;;;7.90;3.05;;;;;;;0.64;64.26;96659.19;5049496;28;20033;-65
2024/02/05 06:27:25;;;;;;;7.45;3.17;;;;;;;0.63;64.11;96651.44;5049778;28;20040;-59
2024/02/05 06:29:51;;;;;;;10.32;3.03;;;;;;;0.65;64.44;96660.84;5048696;27;20036;-62
2024/02/05 06:32:16;;;;;;;12.45;3.30;;;;;;;0.61;64.04;96648.94;5048963;28;20056;-66
2024/02/05 06:34:44;;;;;;;8.73;2.90;;;;;;;0.76;64.46;96657.22;5052457;27;20344;-70
2024/02/05 06:37:10;;;;;;;10.43;3.05;;;;;;;0.78;63.95;96665.81;5050205;28;20039;-67
2024/02/05 06:39:35;;;;;;;10.40;3.03;;;;;;;0.86;64.02;96662.50;5049983;28;20025;-67
2024/02/05 06:42:01;;;;;;;8.18;3.38;;;;;;;0.95;63.96;96661.63;5065854;27;20372;-63
2024/02/05 06:44:27;;;;;;;7.65;3.10;;;;;;;0.96;63.74;96655.38;5055201;27;20040;-65
2024/02/05 06:46:53;;;;;;;8.75;2.80;;;;;;;0.76;63.24;96603.75;5091837;27;20404;-69
2024/02/05 06:49:19;;;;;;;7.82;2.45;;;;;;;0.84;63.47;96614.41;5126980;27;20476;-67
2024/02/05 06:51:44;;;;;;;9.55;2.60;;;;;;;1.06;63.23;96651.91;5124917;27;20058;-68
2024/02/05 06:54:11;;;;;;;7.57;2.42;;;;;;;1.04;62.64;96649.41;5060014;27;20521;-69
2024/02/05 06:56:37;;;;;;;5.88;2.13;;;;;;;1.08;62.63;96653.41;5028401;28;20049;-68
2024/02/05 06:59:02;;;;;;;12.65;2.55;;;;;;;1.05;62.98;96645.81;5040450;28;20160;-63
2024/02/05 07:01:28;;;;;;;9.02;2.55;;;;;;;1.11;62.87;96645.25;5049930;28;20397;-66
2024/02/05 07:03:53;;;;;;;12.55;2.30;;;;;;;1.07;63.03;96646.50;5049253;28;20043;-69
2024/02/05 07:06:19;;;;;;;10.00;3.20;;;;;;;1.07;63.37;96643.84;5049111;28;20041;-68
2024/02/05 07:08:46;;;;;;;9.48;3.42;;;;;;;1.13;62.84;96635.41;5049643;28;20107;-68
2024/02/05 07:11:12;;;;;;;9.52;2.42;;;;;;;1.17;63.11;96649.09;5038337;28;20121;-69
2024/02/05 07:13:38;;;;;;;5.63;2.40;;;;;;;1.18;62.63;96642.84;5029173;28;20121;-68
2024/02/05 07:16:14;;;;;;;6.63;2.20;;;;;;;1.29;62.47;96647.97;5029881;28;20364;-69
2024/02/05 07:18:40;;;;;;;;;;;;;;;1.57;62.96;96634.81;5029373;28;20029;-68
2024/02/05 07:21:06;;;;;;;7.15;2.17;;;;;;;1.39;62.37;96631.28;5029180;28;19909;-66
2024/02/05 07:23:32;;;;;;;9.32;2.80;;;;;;;1.28;62.24;96638.41;5029358;28;20037;-67
2024/02/05 07:25:58;;;;;;;9.45;2.70;;;;;;;1.23;62.57;96627.47;5030721;28;20061;-68
2024/02/05 07:28:23;;;;;;;8.93;2.78;;;;;;;1.25;62.45;96625.50;5048286;28;20029;-67
2024/02/05 07:30:49;;;;;;;8.27;2.67;;;;;;;1.25;62.48;96624.66;5076677;27;20077;-68
2024/02/05 07:33:14;;;;;;;9.73;2.75;;;;;;;1.29;62.82;96626.88;5127006;28;20031;-67
2024/02/05 07:35:40;;;;;;;13.50;3.10;;;;;;;1.34;62.52;96608.00;5053504;27;20060;-68
2024/02/05 07:38:05;;;;;;;12.80;2.80;;;;;;;1.44;62.14;96618.47;5048040;28;20072;-67
2024/02/05 07:40:31;;;;;;;7.90;2.70;;;;;;;1.55;62.32;96620.09;5047126;28;20066;-68
2024/02/05 07:42:56;;;;;;;6.43;2.50;;;;;;;1.62;61.70;96615.91;5048799;28;20441;-68
2024/02/05 07:45:22;;;;;;;14.60;3.08;;;;;;;1.63;61.93;96629.91;5031180;28;20025;-68
2024/02/05 07:47:47;;;;;;;9.38;3.10;;;;;;;1.65;61.77;96614.78;5048326;28;20371;-67
2024/02/05 07:50:14;;;;;;;15.45;3.25;;;;;;;1.77;61.88;96623.31;5048808;28;20655;-67
2024/02/05 07:52:39;;;;;;;8.38;2.65;;;;;;;1.69;61.36;96605.63;5048565;28;20033;-67
2024/02/05 07:55:05;;;;;;;9.85;2.80;;;;;;;1.76;61.00;96617.22;5048306;28;20060;-63
2024/02/05 07:57:31;;;;;;;10.90;3.20;;;;;;;1.69;61.40;96626.72;5048053;28;20033;-68
2024/02/05 07:59:57;;;;;;;6.55;2.80;;;;;;;1.72;61.26;96621.13;5047983;28;20033;-67
2024/02/05 08:02:25;;;;;;;7.30;2.65;;;;;;;1.71;60.67;96614.22;5063222;28;20033;-67
2024/02/05 08:04:51;;;;;;;9.07;3.05;;;;;;;1.71;60.99;96624.75;5064121;28;20123;-70
2024/02/05 08:07:17;;;;;;;13.38;3.17;;;;;;;1.57;60.88;96612.91;5081384;28;20067;-66
2024/02/05 08:09:42;;;;;;;11.50;3.90;;;;;;;1.64;61.11;96628.94;5100364;28;20063;-65
2024/02/05 08:12:08;;;;;;;7.18;2.80;;;;;;;1.60;61.32;96622.31;5086709;28;20056;-65
2024/02/05 08:14:34;;;;;;;10.68;2.85;;;;;;;1.63;61.15;96627.28;5047232;28;20020;-67
2024/02/05 08:17:00;;;;;;;7.47;2.30;;;;;;;1.61;60.77;96618.69;5043355;28;20314;-67
2024/02/05 08:19:25;;;;;;;6.72;2.30;;;;;;;1.61;60.79;96613.41;5045835;28;20464;-67
2024/02/05 08:21:51;;;;;;;9.48;2.72;;;;;;;1.69;60.71;96626.72;5051457;28;20081;-68
2024/02/05 08:24:18;;;;;;;8.85;2.55;;;;;;;1.70;60.43;96625.75;5041757;28;20527;-66
2024/02/05 08:26:43;;;;;;;9.27;2.67;;;;;;;1.76;60.68;96629.56;5041157;28;20108;-67
2024/02/05 08:29:09;;;;;;;9.93;2.53;;;;;;;1.82;60.30;96627.19;5050730;28;20108;-67
2024/02/05 08:31:36;;;;;;;8.88;2.38;;;;;;;1.80;60.54;96623.00;5051870;28;20037;-67
2024/02/05 08:34:02;;;;;;;6.55;2.50;;;;;;;1.81;60.10;96628.16;5050319;27;20361;-68
2024/02/05 08:36:29;;;;;;;15.95;3.05;;;;;;;1.82;60.41;96621.09;5049223;28;20025;-67
2024/02/05 08:38:55;;;;;;;9.27;3.00;;;;;;;1.83;60.21;96628.84;5049528;28;20476;-67
2024/02/05 08:41:21;;;;;;;7.65;2.53;;;;;;;1.82;60.62;96615.81;5049857;28;20033;-72
2024/02/05 08:43:46;;;;;;;8.98;2.90;;;;;;;1.90;60.06;96609.78;5039241;27;20132;-64
2024/02/05 08:46:12;;;;;;;12.43;2.80;;;;;;;1.96;60.22;96603.91;5106674;27;20358;-66
2024/02/05 08:48:39;;;;;;;7.90;3.13;;;;;;;1.92;59.41;96581.44;5053310;27;20033;-64
2024/02/05 08:51:05;;;;;;;8.48;2.65;;;;;;;2.07;59.48;96610.78;5069031;27;20047;-64
2024/02/05 08:53:31;;;;;;;6.47;2.88;;;;;;;2.13;59.32;96618.91;5036140;27;20095;-64
2024/02/05 08:55:56;;;;;;;7.60;2.85;;;;;;;1.96;59.28;96590.72;5049284;28;20122;-63
2024/02/05 08:58:22;;;;;;;6.78;2.58;;;;;;;2.10;58.99;96624.50;5047930;27;20025;-64
2024/02/05 09:00:49;;;;;;;9.13;3.20;;;;;;;1.58;58.75;96536.25;5049544;27;20037;-64
2024/02/05 09:03:16;;;;;;;8.25;2.42;;;;;;;2.11;59.53;96612.97;5051038;27;20062;-64
2024/02/05 09:05:47;;;;;;;7.03;2.70;;;;;;;2.18;59.31;96609.75;5056430;27;20039;-64
2024/02/05 09:08:13;;;;;;;7.97;2.67;;;;;;;2.08;58.43;96599.25;5048695;28;20492;-62
2024/02/05 09:10:39;;;;;;;6.47;2.47;;;;;;;2.05;58.96;96587.19;5049880;28;20474;-65
2024/02/05 09:13:04;;;;;;;8.85;2.13;;;;;;;2.00;58.71;96576.25;5042937;28;20033;-64
2024/02/05 09:15:30;;;;;;;6.93;2.83;;;;;;;2.23;58.63;96608.28;5048427;28;20039;-64
2024/02/05 09:17:56;;;;;;;7.55;2.40;;;;;;;2.32;58.09;96589.91;5050004;28;20029;-65
2024/02/05 09:20:22;;;;;;;7.13;2.33;;;;;;;2.49;57.88;96590.88;5050332;28;20037;-63
2024/02/05 09:22:48;;;;;;;9.57;2.67;;;;;;;2.69;57.86;96594.97;5049116;28;20036;-62
2024/02/05 09:25:14;;;;;;;7.57;2.75;;;;;;;2.95;56.57;96596.81;5049043;28;20112;-63
2024/02/05 09:27:39;;;;;;;10.50;3.22;;;;;;;3.18;55.92;96598.09;5048875;28;20116;-62
2024/02/05 09:30:06;;;;;;;8.45;2.70;;;;;;;3.30;55.44;96591.56;5049627;28;20417;-64
2024/02/05 09:32:32;;;;;;;11.13;3.20;;;;;;;3.13;55.36;96551.81;5046943;28;20029;-63
2024/02/05 09:34:58;;;;;;;9.55;3.40;;;;;;;3.45;55.45;96591.78;5048538;27;20029;-63
2024/02/05 09:37:24;;;;;;;8.13;3.25;;;;;;;3.47;54.98;96596.88;5048998;28;20109;-71
2024/02/05 09:39:50;;;;;;;6.47;2.55;;;;;;;3.44;55.37;96600.69;5050290;28;20059;-71
2024/02/05 09:42:16;;;;;;;5.15;2.70;;;;;;;3.50;54.91;96599.25;5049495;28;20025;-63
2024/02/05 09:44:45;;;;;;;8.05;2.88;;;;;;;3.60;54.92;96602.59;5048687;28;20044;-63
2024/02/05 09:47:18;;;;;;;9.52;3.22;;;;;;;3.48;55.33;96607.31;5049626;28;20508;-62
2024/02/05 09:49:47;;;;;;;9.32;3.35;;;;;;;3.32;55.66;96600.16;5048172;28;20048;-64
2024/02/05 09:52:14;;;;;;;9.45;2.80;;;;;;;3.24;55.98;96610.66;5048981;28;20071;-64
2024/02/05 09:54:43;;;;;;;8.25;2.70;;;;;;;3.11;56.37;96611.09;5029661;28;20037;-61
2024/02/05 09:57:09;;;;;;;10.80;3.33;;;;;;;2.91;56.59;96603.41;5030361;28;20445;-62
2024/02/05 09:59:35;;;;;;;8.27;2.85;;;;;;;2.78;56.79;96618.81;5046470;28;20031;-64
2024/02/05 10:02:06;;;;;;;8.60;3.13;;;;;;;2.68;57.83;96605.69;5047922;28;20029;-71
2024/02/05 10:04:53;;;;;;;9.80;3.28;;;;;;;2.60;57.97;96582.69;5047898;28;20405;-64
2024/02/05 10:07:19;;;;;;;11.98;3.17;;;;;;;2.57;57.75;96617.31;5049747;28;20374;-64
2024/02/05 10:09:46;;;;;;;9.90;3.13;;;;;;;2.47;58.65;96603.41;5048676;28;20076;-63
2024/02/05 10:12:13;;;;;;;8.93;3.33;;;;;;;2.48;58.34;96610.34;5048358;28;20094;-62
2024/02/05 10:14:42;;;;;;;10.32;3.35;;;;;;;2.43;58.52;96616.91;5030020;28;20033;-64
2024/02/05 10:17:08;;;;;;;7.93;2.83;;;;;;;2.41;58.67;96615.38;5031964;28;20133;-65
2024/02/05 10:19:34;;;;;;;6.80;3.28;;;;;;;2.42;58.64;96606.47;5028569;28;20040;-63
2024/02/05 10:22:07;;;;;;;7.80;3.10;;;;;;;2.50;58.64;96613.66;5027906;28;20037;-63
2024/02/05 10:24:34;;;;;;;8.25;3.08;;;;;;;2.43;58.30;96608.97;5029250;28;20064;-64
2024/02/05 10:26:59;;;;;;;10.40;3.33;;;;;;;2.44;58.08;96599.22;5030786;28;20030;-65
2024/02/05 10:29:25;;;;;;;9.95;3.92;;;;;;;2.56;57.76;96603.31;5044322;27;20033;-64
2024/02/05 10:31:53;;;;;;;11.52;3.92;;;;;;;2.53;58.12;96587.78;5046868;28;20098;-64
2024/02/05 10:34:23;;;;;;;11.45;4.20;;;;;;;2.58;57.69;96588.13;5048689;28;20064;-65
2024/02/05 10:36:50;;;;;;;11.40;5.35;;;;;;;2.63;57.48;96600.84;5043419;28;20100;-62
2024/02/05 10:39:23;;;;;;;14.82;5.03;;;;;;;2.76;58.00;96587.25;5047436;28;20036;-63
2024/02/05 10:41:50;;;;;;;10.73;4.25;;;;;;;2.83;57.19;96605.97;5034042;28;20045;-65
2024/02/05 10:44:15;;;;;;;10.32;4.22;;;;;;;2.89;57.05;96596.59;5031617;28;20377;-63
2024/02/05 10:46:41;;;;;;;8.55;3.22;;;;;;;2.82;57.07;96580.53;5025900;28;20029;-64
2024/02/05 10:49:08;;;;;;;7.18;2.90;;;;;;;2.89;56.47;96597.41;5043071;28;20119;-62
2024/02/05 10:51:36;;;;;;;5.95;2.78;;;;;;;2.84;56.53;96589.97;5048179;28;20114;-63
2024/02/05 10:54:02;;;;;;;5.53;2.65;;;;;;;2.91;56.12;96599.91;5049493;27;20123;-63
2024/02/05 10:56:31;;;;;;;6.32;2.92;;;;;;;2.96;56.42;96595.81;5051615;27;20033;-63
2024/02/05 10:58:59;;;;;;;7.28;2.65;;;;;;;2.99;56.70;96597.31;5037791;28;20421;-62
2024/02/05 11:01:30;;;;;;;8.65;3.63;;;;;;;2.98;56.72;96598.28;5033043;28;20138;-62
2024/02/05 11:04:01;;;;;;;13.70;3.40;;;;;;;2.94;56.64;96599.59;5048472;28;20149;-62
2024/02/05 11:06:32;;;;;;;12.07;4.15;;;;;;;2.77;56.71;96577.53;5047923;28;20025;-62
2024/02/05 11:08:59;;;;;;;9.45;3.30;;;;;;;2.70;56.66;96570.22;5046615;28;20033;-64
2024/02/05 11:11:25;;;;;;;7.25;2.67;;;;;;;2.79;55.99;96605.47;5047348;28;20459;-63
2024/02/05 11:13:56;;;;;;;9.85;3.15;;;;;;;2.76;55.42;96581.16;5048488;28;20054;-62
2024/02/05 11:16:23;;;;;;;6.20;2.53;;;;;;;2.76;55.64;96586.44;5048839;28;20032;-63
2024/02/05 11:18:57;;;;;;;6.72;2.40;;;;;;;2.81;54.49;96600.84;5047857;28;20037;-63
2024/02/05 11:21:27;;;;;;;5.10;2.10;;;;;;;2.84;53.99;96597.03;5048284;28;20025;-62
2024/02/05 11:23:56;;;;;;;7.72;1.90;;;;;;;2.79;52.75;96599.34;5048720;28;20065;-63
2024/02/05 11:26:22;;;;;;;5.45;1.70;;;;;;;2.73;52.60;96598.97;5047018;28;20029;-63
2024/02/05 11:28:53;;;;;;;6.25;1.70;;;;;;;2.84;52.23;96600.53;5036398;28;20029;-62
2024/02/05 11:31:23;;;;;;;6.88;1.60;;;;;;;2.62;51.44;96567.50;5125839;27;20039;-63
2024/02/05 11:34:01;;;;;;;6.20;1.85;;;;;;;2.87;51.74;96604.66;5132531;27;20061;-64
2024/02/05 11:36:28;;;;;;;6.38;1.90;;;;;;;2.84;52.08;96602.34;5052069;27;20136;-67
2024/02/05 11:39:13;;;;;;;5.68;1.67;;;;;;;2.84;52.07;96599.69;5048489;28;20044;-69